Terminal Aerodrome Forecast
Issued by NWS Blacksburg, VA

Home | Current Version | Previous Version | Text Only | Print | Product List | Glossary On
Versions: 1 2 3 4 5 6 7 8 9 10 11 12 13 14 15 16 17 18 19 20 21 22 23 24 25 26 27 28 29 30 31 32 33 34 35 36
722
FTUS41 KRNK 290533 AAC
TAFLYH
TAF AMD
KLYH 290533Z 2906/3006 00000KT 1/4SM FG VV001
      TEMPO 2906/2910 1SM BR OVC003
     FM291100 VRB03KT 3SM BR SCT250
     FM291300 26006KT P6SM SCT250
     FM291800 27007KT P6SM BKN050
     FM300000 VRB03KT P6SM SCT120=

USA.gov is the U.S. government's official web portal to all federal, state and local government web resources and services.